createdAt,value
2018-06-27T00:00:02.184Z,10.63
2018-06-27T00:01:02.664Z,10.61
2018-06-27T00:02:02.943Z,10.59
2018-06-27T00:03:02.627Z,10.56
2018-06-27T00:04:02.096Z,10.51
2018-06-27T00:05:02.719Z,10.53
2018-06-27T00:06:02.037Z,10.53
2018-06-27T00:07:02.572Z,10.54
2018-06-27T00:08:02.118Z,10.54
2018-06-27T00:09:02.679Z,10.56
2018-06-27T00:10:02.319Z,10.57
2018-06-27T00:11:26.396Z,10.54
2018-06-27T00:12:26.723Z,10.53
2018-06-27T00:13:26.317Z,10.53
2018-06-27T00:14:26.814Z,10.51
2018-06-27T00:15:26.498Z,10.48
2018-06-27T00:16:27.075Z,10.46
2018-06-27T00:17:26.615Z,10.49
2018-06-27T00:18:27.208Z,10.51
2018-06-27T00:19:26.757Z,10.46
2018-06-27T00:20:26.275Z,10.40
2018-06-27T00:21:26.963Z,10.40
2018-06-27T00:22:26.246Z,10.41
2018-06-27T00:23:26.443Z,10.41
2018-06-27T00:24:27.059Z,10.37
2018-06-27T00:25:26.639Z,10.34
2018-06-27T00:26:27.185Z,10.31
2018-06-27T00:27:26.862Z,10.28
2018-06-27T00:28:26.223Z,10.28
2018-06-27T00:29:26.963Z,10.26
2018-06-27T00:30:26.906Z,10.22
2018-06-27T00:31:26.395Z,10.20
2018-06-27T00:32:26.907Z,10.19
2018-06-27T00:33:26.289Z,10.15
2018-06-27T00:34:27.058Z,10.13
2018-06-27T00:35:26.536Z,10.12
2018-06-27T00:36:26.843Z,10.12
2018-06-27T00:37:26.604Z,10.12
2018-06-27T00:38:26.965Z,10.12
2018-06-27T00:39:26.432Z,10.15
2018-06-27T00:40:26.876Z,10.19
2018-06-27T00:41:26.448Z,10.20
2018-06-27T00:42:26.713Z,10.23
2018-06-27T00:43:26.385Z,10.23
2018-06-27T00:44:26.996Z,10.25
2018-06-27T00:45:26.469Z,10.25
2018-06-27T00:46:26.886Z,10.28
2018-06-27T00:47:26.311Z,10.33
2018-06-27T00:48:26.612Z,10.35
2018-06-27T00:49:50.690Z,10.37
2018-06-27T00:50:51.543Z,10.37
2018-06-27T00:51:51.005Z,10.37
2018-06-27T00:52:51.300Z,10.37
2018-06-27T00:53:50.789Z,10.41
2018-06-27T00:54:51.218Z,10.41
2018-06-27T00:55:50.896Z,10.41
2018-06-27T00:56:51.485Z,10.42
2018-06-27T00:57:51.050Z,10.42
2018-06-27T00:59:14.415Z,10.40
2018-06-27T01:00:15.005Z,10.42
2018-06-27T01:01:14.653Z,10.41
2018-06-27T01:02:14.436Z,10.41
2018-06-27T01:03:14.136Z,10.40
2018-06-27T01:04:14.601Z,10.40
2018-06-27T01:05:14.173Z,10.44
2018-06-27T01:06:14.633Z,10.42
2018-06-27T01:07:35.221Z,10.48
2018-06-27T01:08:35.935Z,10.51
2018-06-27T01:09:35.443Z,10.54
2018-06-27T01:10:36.047Z,10.54
2018-06-27T01:11:35.797Z,10.57
2018-06-27T01:12:36.038Z,10.60
2018-06-27T01:13:35.405Z,10.60
2018-06-27T01:14:35.953Z,10.61
2018-06-27T01:15:36.139Z,10.63
2018-06-27T01:16:58.831Z,10.67
2018-06-27T01:17:59.203Z,10.68
2018-06-27T01:18:59.927Z,10.71
2018-06-27T01:19:59.461Z,10.74
2018-06-27T01:20:58.869Z,10.75
2018-06-27T01:21:59.231Z,10.78
2018-06-27T01:22:59.821Z,10.79
2018-06-27T01:24:20.474Z,10.82
2018-06-27T01:25:20.716Z,10.86
2018-06-27T01:26:20.991Z,10.81
2018-06-27T01:27:21.440Z,10.81
2018-06-27T01:28:21.047Z,10.82
2018-06-27T01:29:21.419Z,10.82
2018-06-27T01:30:20.777Z,10.81
2018-06-27T01:31:42.247Z,10.78
2018-06-27T01:32:43.104Z,10.76
2018-06-27T01:33:42.661Z,10.76
2018-06-27T01:34:42.873Z,10.76
2018-06-27T01:35:42.445Z,10.75
2018-06-27T01:36:42.993Z,10.74
2018-06-27T01:37:42.552Z,10.74
2018-06-27T01:39:04.105Z,10.71
2018-06-27T01:40:04.618Z,10.68
2018-06-27T01:41:04.263Z,10.67
2018-06-27T01:42:04.514Z,10.64
2018-06-27T01:43:04.815Z,10.63
2018-06-27T01:44:04.480Z,10.60
2018-06-27T01:45:28.186Z,10.61
2018-06-27T01:46:28.674Z,10.60
2018-06-27T01:47:29.066Z,10.60
2018-06-27T01:48:28.478Z,10.60
2018-06-27T01:49:28.923Z,10.59
2018-06-27T01:50:28.504Z,10.60
2018-06-27T01:51:29.779Z,10.60
2018-06-27T01:52:29.156Z,10.59
2018-06-27T01:53:28.468Z,10.59
2018-06-27T01:54:50.219Z,10.60
2018-06-27T01:55:53.306Z,10.61
2018-06-27T01:56:55.504Z,10.61
2018-06-27T01:57:50.996Z,10.61
2018-06-27T01:58:50.532Z,10.64
2018-06-27T01:59:51.010Z,10.68
2018-06-27T02:00:50.466Z,10.69
2018-06-27T02:02:14.074Z,10.71
2018-06-27T02:03:14.814Z,10.72
2018-06-27T02:04:14.559Z,10.72
2018-06-27T02:05:13.987Z,10.71
2018-06-27T02:06:14.599Z,10.71
2018-06-27T02:07:14.171Z,10.69
2018-06-27T02:08:14.571Z,10.71
2018-06-27T02:09:13.948Z,10.71
2018-06-27T02:10:14.378Z,10.71
2018-06-27T02:11:14.719Z,10.69
2018-06-27T02:12:14.437Z,10.68
2018-06-27T02:13:37.167Z,10.71
2018-06-27T02:14:37.539Z,10.69
2018-06-27T02:15:37.195Z,10.68
2018-06-27T02:16:37.779Z,10.64
2018-06-27T02:17:37.007Z,10.68
2018-06-27T02:19:00.685Z,10.68
2018-06-27T02:20:01.140Z,10.68
2018-06-27T02:21:01.829Z,10.67
2018-06-27T02:22:01.222Z,10.67
2018-06-27T02:23:01.485Z,10.67
2018-06-27T02:24:00.887Z,10.67
2018-06-27T02:25:01.320Z,10.67
2018-06-27T02:26:01.618Z,10.64
2018-06-27T02:27:01.686Z,10.64
2018-06-27T02:28:01.046Z,10.68
2018-06-27T02:29:01.460Z,10.68
2018-06-27T02:30:00.713Z,10.69
2018-06-27T02:31:22.716Z,10.69
2018-06-27T02:32:23.383Z,10.69
2018-06-27T02:33:23.243Z,10.67
2018-06-27T02:34:22.815Z,10.63
2018-06-27T02:35:23.497Z,10.60
2018-06-27T02:36:23.044Z,10.59
2018-06-27T02:37:23.457Z,10.53
2018-06-27T02:38:22.907Z,10.49
2018-06-27T02:39:23.340Z,10.46
2018-06-27T02:40:22.833Z,10.42
2018-06-27T02:41:23.451Z,10.41
2018-06-27T02:42:23.013Z,10.38
2018-06-27T02:43:44.910Z,10.35
2018-06-27T02:44:45.370Z,10.33
2018-06-27T02:45:44.769Z,10.28
2018-06-27T02:46:45.542Z,10.26
2018-06-27T02:47:45.209Z,10.25
2018-06-27T02:48:45.409Z,10.22
2018-06-27T02:49:45.074Z,10.17
2018-06-27T02:50:45.696Z,10.13
2018-06-27T02:51:45.030Z,10.10
2018-06-27T02:52:45.725Z,10.07
2018-06-27T02:53:45.255Z,10.04
2018-06-27T02:54:45.658Z,9.99
2018-06-27T02:55:45.270Z,9.95
2018-06-27T02:56:44.950Z,9.95
2018-06-27T02:57:45.563Z,9.95
2018-06-27T02:58:44.906Z,9.97
2018-06-27T02:59:45.284Z,9.94
2018-06-27T03:00:44.883Z,9.89
2018-06-27T03:01:45.376Z,9.86
2018-06-27T03:03:06.386Z,9.83
2018-06-27T03:04:07.788Z,9.83
2018-06-27T03:05:07.132Z,9.82
2018-06-27T03:06:06.663Z,9.83
2018-06-27T03:07:07.035Z,9.83
2018-06-27T03:08:06.351Z,9.80
2018-06-27T03:09:06.832Z,9.79
2018-06-27T03:10:06.439Z,9.73
2018-06-27T03:11:06.988Z,9.68
2018-06-27T03:12:28.010Z,9.62
2018-06-27T03:13:28.713Z,9.58
2018-06-27T03:14:28.472Z,9.50
2018-06-27T03:15:28.113Z,9.44
2018-06-27T03:16:28.500Z,9.39
2018-06-27T03:17:28.097Z,9.34
2018-06-27T03:18:28.637Z,9.31
2018-06-27T03:19:27.968Z,9.29
2018-06-27T03:20:28.350Z,9.28
2018-06-27T03:21:27.820Z,9.28
2018-06-27T03:22:28.601Z,9.28
2018-06-27T03:23:28.263Z,9.26
2018-06-27T03:24:49.317Z,9.26
2018-06-27T03:26:11.372Z,9.25
2018-06-27T03:27:12.016Z,9.25
2018-06-27T03:28:32.942Z,9.25
2018-06-27T03:30:17.993Z,9.26
2018-06-27T03:31:18.520Z,9.28
2018-06-27T03:32:18.305Z,9.29
2018-06-27T03:33:40.605Z,9.34
2018-06-27T03:34:41.126Z,9.34
2018-06-27T03:35:40.614Z,9.34
2018-06-27T03:36:41.179Z,9.34
2018-06-27T03:37:40.693Z,9.32
2018-06-27T03:38:41.535Z,9.34
2018-06-27T03:39:40.867Z,9.34
2018-06-27T03:40:40.404Z,9.37
2018-06-27T03:41:41.143Z,9.37
2018-06-27T03:42:40.776Z,9.40
2018-06-27T03:43:41.350Z,9.40
2018-06-27T03:45:03.821Z,9.43
2018-06-27T03:46:04.292Z,9.43
2018-06-27T03:47:04.780Z,9.46
2018-06-27T03:48:04.370Z,9.46
2018-06-27T03:49:04.116Z,9.50
2018-06-27T03:50:04.974Z,9.50
2018-06-27T03:51:04.380Z,9.50
2018-06-27T03:52:28.272Z,9.54
2018-06-27T03:53:28.743Z,9.58
2018-06-27T03:54:28.373Z,9.58
2018-06-27T03:55:28.847Z,9.58
2018-06-27T03:56:51.824Z,9.62
2018-06-27T03:57:52.274Z,9.62
2018-06-27T03:58:52.929Z,9.65
2018-06-27T03:59:52.412Z,9.68
2018-06-27T04:00:52.998Z,9.68
2018-06-27T04:01:52.564Z,9.69
2018-06-27T04:02:52.113Z,9.72
2018-06-27T04:03:52.923Z,9.74
2018-06-27T04:04:52.565Z,9.82
2018-06-27T04:05:52.221Z,9.87
2018-06-27T04:06:52.887Z,9.92
2018-06-27T04:07:52.574Z,9.97
2018-06-27T04:09:15.747Z,10.07
2018-06-27T04:10:16.480Z,10.16
2018-06-27T04:11:16.028Z,10.20
2018-06-27T04:12:36.771Z,10.26
2018-06-27T04:14:00.609Z,10.33
2018-06-27T04:15:01.248Z,10.37
2018-06-27T04:16:22.790Z,10.41
2018-06-27T04:17:23.519Z,10.44
2018-06-27T04:18:23.136Z,10.49
2018-06-27T04:19:23.687Z,10.53
2018-06-27T04:20:23.169Z,10.54
2018-06-27T04:21:22.642Z,10.59
2018-06-27T04:22:46.544Z,10.61
2018-06-27T04:23:46.976Z,10.64
2018-06-27T04:24:47.410Z,10.68
2018-06-27T04:25:47.311Z,10.71
2018-06-27T04:26:46.864Z,10.74
2018-06-27T04:27:47.460Z,10.76
2018-06-27T04:28:47.492Z,10.81
2018-06-27T04:29:46.956Z,10.84
2018-06-27T04:30:46.644Z,10.87
2018-06-27T04:31:47.364Z,10.90
2018-06-27T04:33:31.355Z,10.97
2018-06-27T04:34:29.945Z,11.04
2018-06-27T04:35:30.923Z,11.07
2018-06-27T04:36:30.542Z,11.14
2018-06-27T04:37:30.106Z,11.18
2018-06-27T04:38:30.520Z,11.23
2018-06-27T04:39:30.345Z,11.26
2018-06-27T04:40:51.635Z,11.33
2018-06-27T04:41:52.456Z,11.37
2018-06-27T04:43:13.626Z,11.43
2018-06-27T04:44:14.396Z,11.45
2018-06-27T04:45:14.116Z,11.48
2018-06-27T04:46:13.617Z,11.50
2018-06-27T04:47:14.412Z,11.52
2018-06-27T04:48:14.204Z,11.55
2018-06-27T04:49:13.636Z,11.60
2018-06-27T04:50:14.403Z,11.63
2018-06-27T04:51:14.268Z,11.66
2018-06-27T04:52:13.906Z,11.69
2018-06-27T04:53:13.820Z,11.73
2018-06-27T04:54:14.634Z,11.73
2018-06-27T04:55:14.379Z,11.77
2018-06-27T04:56:14.188Z,11.81
2018-06-27T04:57:13.674Z,11.86
2018-06-27T04:58:14.173Z,11.95
2018-06-27T04:59:37.320Z,12.04
2018-06-27T05:00:37.759Z,12.09
2018-06-27T05:01:37.395Z,12.17
2018-06-27T05:03:24.744Z,12.21
2018-06-27T05:04:48.871Z,12.24
2018-06-27T05:05:49.302Z,12.27
2018-06-27T05:07:36.136Z,12.32
2018-06-27T05:08:57.441Z,12.37
2018-06-27T05:09:58.227Z,12.42
2018-06-27T05:10:57.652Z,12.40
2018-06-27T05:11:57.527Z,12.45
2018-06-27T05:12:58.216Z,12.54
2018-06-27T05:14:21.311Z,12.67
2018-06-27T05:15:21.985Z,12.73
2018-06-27T05:16:21.880Z,12.83
2018-06-27T05:17:21.518Z,12.94
2018-06-27T05:18:22.184Z,12.94
2018-06-27T05:19:21.796Z,12.95
2018-06-27T05:20:21.428Z,13.04
2018-06-27T05:21:22.030Z,13.11
2018-06-27T05:22:21.550Z,13.15
2018-06-27T05:23:21.106Z,13.15
2018-06-27T05:24:21.537Z,13.18
2018-06-27T05:25:22.232Z,13.28
2018-06-27T05:26:21.839Z,13.39
2018-06-27T05:27:21.254Z,13.47
2018-06-27T05:28:21.268Z,13.56
2018-06-27T05:29:22.091Z,13.70
2018-06-27T05:30:21.549Z,13.75
2018-06-27T05:31:22.096Z,13.83
2018-06-27T05:32:21.957Z,13.90
2018-06-27T05:33:21.803Z,13.95
2018-06-27T05:34:44.745Z,14.04
2018-06-27T05:35:45.164Z,14.05
2018-06-27T05:36:44.871Z,14.11
2018-06-27T05:37:45.474Z,14.23
2018-06-27T05:38:45.272Z,14.33
2018-06-27T05:39:44.898Z,14.44
2018-06-27T05:41:30.496Z,14.55
2018-06-27T05:42:31.246Z,14.66
2018-06-27T05:43:30.984Z,14.73
2018-06-27T05:44:55.203Z,14.82
2018-06-27T05:45:55.809Z,14.86
2018-06-27T05:46:55.262Z,14.96
2018-06-27T05:47:56.041Z,15.03
2018-06-27T05:48:56.096Z,15.06
2018-06-27T05:50:19.645Z,15.14
2018-06-27T05:51:20.632Z,15.22
2018-06-27T05:52:20.520Z,15.24
2018-06-27T05:53:41.307Z,15.33
2018-06-27T05:54:41.939Z,15.44
2018-06-27T05:55:41.423Z,15.52
2018-06-27T05:57:06.348Z,15.59
2018-06-27T05:58:07.285Z,15.67
2018-06-27T05:59:07.156Z,15.76
2018-06-27T06:00:07.113Z,15.80
2018-06-27T06:01:06.769Z,15.83
2018-06-27T06:02:53.978Z,15.86
2018-06-27T06:03:53.618Z,15.97
2018-06-27T06:04:54.162Z,15.98
2018-06-27T06:05:53.757Z,15.98
2018-06-27T06:06:53.562Z,16.04
2018-06-27T06:07:53.399Z,16.12
2018-06-27T06:08:53.890Z,16.21
2018-06-27T06:10:17.481Z,16.43
2018-06-27T06:11:18.484Z,16.51
2018-06-27T06:12:18.148Z,16.54
2018-06-27T06:13:18.006Z,16.56
2018-06-27T06:14:17.714Z,16.61
2018-06-27T06:15:17.680Z,16.74
2018-06-27T06:16:19.035Z,16.86
2018-06-27T06:17:18.102Z,16.86
2018-06-27T06:18:49.298Z,17.02
2018-06-27T06:19:44.475Z,17.12
2018-06-27T06:21:12.334Z,17.29
2018-06-27T06:22:10.863Z,17.33
2018-06-27T06:23:11.558Z,17.42
2018-06-27T06:24:11.083Z,17.54
2018-06-27T06:25:11.791Z,17.70
2018-06-27T06:26:54.105Z,17.87
2018-06-27T06:27:54.497Z,17.98
2018-06-27T06:28:55.032Z,18.08
2018-06-27T06:29:54.690Z,18.13
2018-06-27T06:30:54.406Z,18.19
2018-06-27T06:31:55.207Z,18.20
2018-06-27T06:32:55.012Z,18.33
2018-06-27T06:34:18.104Z,18.58
2018-06-27T06:35:18.767Z,18.71
2018-06-27T06:36:18.620Z,18.89
2018-06-27T06:37:18.224Z,18.99
2018-06-27T06:38:18.795Z,18.95
2018-06-27T06:39:18.383Z,18.98
2018-06-27T06:40:18.310Z,18.96
2018-06-27T06:41:18.234Z,19.00
2018-06-27T06:42:18.967Z,18.99
2018-06-27T06:43:18.770Z,18.98
2018-06-27T06:44:18.508Z,19.00
2018-06-27T06:45:18.332Z,19.15
2018-06-27T06:46:19.050Z,19.31
2018-06-27T06:47:18.939Z,19.27
2018-06-27T06:48:18.758Z,19.37
2018-06-27T06:49:18.361Z,19.52
2018-06-27T06:50:18.014Z,19.64
2018-06-27T06:51:18.529Z,19.74
2018-06-27T06:52:18.210Z,19.84
2018-06-27T06:53:19.193Z,19.95
2018-06-27T06:54:18.756Z,20.13
2018-06-27T06:55:18.149Z,20.21
2018-06-27T06:56:18.718Z,20.29
2018-06-27T06:57:18.621Z,20.39
2018-06-27T06:58:18.498Z,20.48
2018-06-27T06:59:18.301Z,20.65
2018-06-27T07:00:18.962Z,20.81
2018-06-27T07:01:18.783Z,20.97
2018-06-27T07:02:18.487Z,21.06
2018-06-27T07:03:41.937Z,21.20
2018-06-27T07:04:42.674Z,21.36
2018-06-27T07:05:42.339Z,21.40
2018-06-27T07:06:41.878Z,21.50
2018-06-27T07:07:42.535Z,21.62
2018-06-27T07:08:42.156Z,21.85
2018-06-27T07:09:41.736Z,22.04
2018-06-27T07:10:42.393Z,22.30
2018-06-27T07:11:42.202Z,22.54
2018-06-27T07:12:41.873Z,22.72
2018-06-27T07:13:42.691Z,22.87
2018-06-27T07:15:05.997Z,23.05
2018-06-27T07:16:06.551Z,23.28
2018-06-27T07:17:29.499Z,23.68
2018-06-27T07:18:30.249Z,23.91
2018-06-27T07:19:29.770Z,24.11
2018-06-27T07:20:30.727Z,23.78
2018-06-27T07:21:30.344Z,23.69
2018-06-27T07:22:54.703Z,23.58
2018-06-27T07:23:55.146Z,23.40
2018-06-27T07:24:54.817Z,23.32
2018-06-27T07:25:55.650Z,23.23
2018-06-27T07:26:55.273Z,23.25
2018-06-27T07:27:54.959Z,23.06
2018-06-27T07:28:54.744Z,23.20
2018-06-27T07:30:15.999Z,23.69
2018-06-27T07:31:38.278Z,23.91
2018-06-27T07:32:38.845Z,23.99
2018-06-27T07:33:38.635Z,23.86
2018-06-27T07:34:38.367Z,23.95
2018-06-27T07:35:39.353Z,24.13
2018-06-27T07:36:38.941Z,24.36
2018-06-27T07:37:38.637Z,24.53
2018-06-27T07:38:39.438Z,24.81
2018-06-27T07:39:39.724Z,25.01
2018-06-27T07:40:38.534Z,25.16
2018-06-27T07:41:39.034Z,25.31
2018-06-27T07:42:39.278Z,25.48
2018-06-27T07:43:39.225Z,25.53
2018-06-27T07:45:02.186Z,25.59
2018-06-27T07:46:02.874Z,25.66
2018-06-27T07:47:02.373Z,25.68
2018-06-27T07:48:02.929Z,25.63
2018-06-27T07:49:02.899Z,25.70
2018-06-27T07:50:02.311Z,25.77
2018-06-27T07:51:24.898Z,25.73
2018-06-27T07:52:25.541Z,25.83
2018-06-27T07:53:25.315Z,26.00
2018-06-27T07:54:25.336Z,26.26
2018-06-27T07:55:25.275Z,26.22
2018-06-27T07:56:48.684Z,25.93
2018-06-27T07:57:49.494Z,26.09
2018-06-27T07:58:49.201Z,26.45
2018-06-27T07:59:48.664Z,26.63
2018-06-27T08:00:49.551Z,26.81
2018-06-27T08:01:49.286Z,26.89
2018-06-27T08:02:49.268Z,27.03
2018-06-27T08:03:48.686Z,27.14
2018-06-27T08:04:49.167Z,27.12
2018-06-27T08:05:48.803Z,27.07
2018-06-27T08:06:49.370Z,27.05
2018-06-27T08:08:15.913Z,26.73
2018-06-27T08:09:15.851Z,26.41
2018-06-27T08:10:14.777Z,26.48
2018-06-27T08:11:14.695Z,26.45
2018-06-27T08:12:14.259Z,26.78
2018-06-27T08:13:14.966Z,26.97
2018-06-27T08:14:14.774Z,27.15
2018-06-27T08:15:14.669Z,27.35
2018-06-27T08:16:14.606Z,27.35
2018-06-27T08:17:14.155Z,27.40
2018-06-27T08:18:38.685Z,27.47
2018-06-27T08:19:39.523Z,27.47
2018-06-27T08:20:39.620Z,27.60
2018-06-27T08:21:39.474Z,27.55
2018-06-27T08:22:38.958Z,27.67
2018-06-27T08:23:38.985Z,27.65
2018-06-27T08:24:38.523Z,27.37
2018-06-27T08:26:06.614Z,27.18
2018-06-27T08:27:05.191Z,27.30
2018-06-27T08:28:04.825Z,27.30
2018-06-27T08:29:05.776Z,27.37
2018-06-27T08:30:04.718Z,27.44
2018-06-27T08:31:05.727Z,27.52
2018-06-27T08:32:05.561Z,27.73
2018-06-27T08:33:05.130Z,27.96
2018-06-27T08:34:05.262Z,28.01
2018-06-27T08:35:04.895Z,27.96
2018-06-27T08:36:05.376Z,27.98
2018-06-27T08:37:04.846Z,28.07
2018-06-27T08:38:04.766Z,28.05
2018-06-27T08:39:27.890Z,28.00
2018-06-27T08:40:28.883Z,28.02
2018-06-27T08:41:28.410Z,28.12
2018-06-27T08:42:28.058Z,28.41
2018-06-27T08:43:28.562Z,28.74
2018-06-27T08:44:28.319Z,28.63
2018-06-27T08:45:28.713Z,28.60
2018-06-27T08:46:28.266Z,28.64
2018-06-27T08:47:29.161Z,28.84
2018-06-27T08:48:29.143Z,28.74
2018-06-27T08:49:29.181Z,28.81
2018-06-27T08:50:28.810Z,28.84
2018-06-27T08:51:52.494Z,28.88
2018-06-27T08:52:54.131Z,29.17
2018-06-27T08:53:53.120Z,29.26
2018-06-27T08:54:52.612Z,29.38
2018-06-27T08:55:52.357Z,29.56
2018-06-27T08:56:52.850Z,29.34
2018-06-27T08:58:16.448Z,29.63
2018-06-27T08:59:16.935Z,29.97
2018-06-27T09:00:16.897Z,30.16
2018-06-27T09:01:16.732Z,30.19
2018-06-27T09:02:40.304Z,30.24
2018-06-27T09:03:39.924Z,30.19
2018-06-27T09:04:40.635Z,30.28
2018-06-27T09:05:40.534Z,30.32
2018-06-27T09:06:40.010Z,30.39
2018-06-27T09:07:41.036Z,30.34
2018-06-27T09:08:40.940Z,30.05
2018-06-27T09:09:40.892Z,29.79
2018-06-27T09:10:40.740Z,29.75
2018-06-27T09:11:40.423Z,29.84
2018-06-27T09:12:40.405Z,29.78
2018-06-27T09:13:40.348Z,29.60
2018-06-27T09:14:39.971Z,29.45
2018-06-27T09:15:41.630Z,29.39
2018-06-27T09:16:40.107Z,29.42
2018-06-27T09:17:41.029Z,29.69
2018-06-27T09:18:40.596Z,29.75
2018-06-27T09:19:40.109Z,29.63
2018-06-27T09:20:41.220Z,29.73
2018-06-27T09:21:40.751Z,29.93
2018-06-27T09:22:40.460Z,30.08
2018-06-27T09:24:04.360Z,30.10
2018-06-27T09:25:04.910Z,30.27
2018-06-27T09:26:04.904Z,30.25
2018-06-27T09:27:05.091Z,30.23
2018-06-27T09:28:28.158Z,30.12
2018-06-27T09:29:52.693Z,29.94
2018-06-27T09:31:16.297Z,29.76
2018-06-27T09:32:16.829Z,29.61
2018-06-27T09:34:04.201Z,29.14
2018-06-27T09:35:04.661Z,28.91
2018-06-27T09:36:04.742Z,29.01
2018-06-27T09:37:04.845Z,29.29
2018-06-27T09:38:04.436Z,29.81
2018-06-27T09:39:04.056Z,29.68
2018-06-27T09:40:03.798Z,29.68
2018-06-27T09:41:04.278Z,29.91
2018-06-27T09:42:04.278Z,30.31
2018-06-27T09:43:48.428Z,30.77
2018-06-27T09:45:13.328Z,30.40
2018-06-27T09:46:13.597Z,30.16
2018-06-27T09:47:13.522Z,30.39
2018-06-27T09:48:36.572Z,30.62
2018-06-27T09:49:37.316Z,30.81
2018-06-27T09:50:38.472Z,31.27
2018-06-27T09:51:37.035Z,31.54
2018-06-27T09:52:36.950Z,31.87
2018-06-27T09:53:37.361Z,32.12
2018-06-27T09:55:24.454Z,32.12
2018-06-27T09:56:24.514Z,32.11
2018-06-27T09:57:24.802Z,32.23
2018-06-27T09:58:47.830Z,32.23
2018-06-27T09:59:48.475Z,32.01
2018-06-27T10:00:48.088Z,32.21
2018-06-27T10:01:48.978Z,32.36
2018-06-27T10:02:48.538Z,32.45
2018-06-27T10:03:48.506Z,32.58
2018-06-27T10:04:48.424Z,32.43
2018-06-27T10:05:48.265Z,32.58
2018-06-27T10:06:47.856Z,32.86
2018-06-27T10:07:49.087Z,32.80
2018-06-27T10:08:47.712Z,32.70
2018-06-27T10:10:11.669Z,33.02
2018-06-27T10:11:12.294Z,33.05
2018-06-27T10:12:12.129Z,33.15
2018-06-27T10:13:12.953Z,33.30
2018-06-27T10:14:12.184Z,33.47
2018-06-27T10:15:11.881Z,33.27
2018-06-27T10:16:36.381Z,33.37
2018-06-27T10:17:37.422Z,33.24
2018-06-27T10:18:37.384Z,33.42
2018-06-27T10:19:37.318Z,33.69
2018-06-27T10:20:36.935Z,33.90
2018-06-27T10:21:36.914Z,33.71
2018-06-27T10:22:58.434Z,33.12
2018-06-27T10:23:58.934Z,32.83
2018-06-27T10:24:59.056Z,32.53
2018-06-27T10:25:59.316Z,32.00
2018-06-27T10:26:58.939Z,32.38
2018-06-27T10:27:58.600Z,32.68
2018-06-27T10:28:58.067Z,32.78
2018-06-27T10:29:59.044Z,32.85
2018-06-27T10:30:59.298Z,33.09
2018-06-27T10:31:58.863Z,33.40
2018-06-27T10:32:58.392Z,33.31
2018-06-27T10:33:58.369Z,33.40
2018-06-27T10:34:59.763Z,33.43
2018-06-27T10:35:58.268Z,33.52
2018-06-27T10:36:58.720Z,33.57
2018-06-27T10:37:58.183Z,33.92
2018-06-27T10:38:59.119Z,34.21
2018-06-27T10:39:59.144Z,34.32
2018-06-27T10:40:59.696Z,34.54
2018-06-27T10:41:58.774Z,34.74
2018-06-27T10:42:58.314Z,34.90
2018-06-27T10:43:59.237Z,35.15
2018-06-27T10:44:59.100Z,35.19
2018-06-27T10:45:58.730Z,35.22
2018-06-27T10:46:59.160Z,35.18
2018-06-27T10:47:59.003Z,35.26
2018-06-27T10:49:22.738Z,35.41
2018-06-27T10:50:22.391Z,35.46
2018-06-27T10:51:45.153Z,35.76
2018-06-27T10:52:45.772Z,35.45
2018-06-27T10:54:08.976Z,34.99
2018-06-27T10:55:09.389Z,34.81
2018-06-27T10:56:32.607Z,34.42
2018-06-27T10:57:33.276Z,34.29
2018-06-27T10:58:33.258Z,34.05
2018-06-27T10:59:32.816Z,33.77
2018-06-27T11:00:33.473Z,33.62
2018-06-27T11:01:33.490Z,33.89
2018-06-27T11:02:33.313Z,34.13
2018-06-27T11:03:32.641Z,34.29
2018-06-27T11:04:33.224Z,34.42
2018-06-27T11:05:32.876Z,34.32
2018-06-27T11:06:32.902Z,34.51
2018-06-27T11:07:33.751Z,34.50
2018-06-27T11:08:33.668Z,34.57
2018-06-27T11:09:57.244Z,34.55
2018-06-27T11:10:58.141Z,34.55
2018-06-27T11:12:21.319Z,34.88
2018-06-27T11:13:21.854Z,34.78
2018-06-27T11:14:21.343Z,34.88
2018-06-27T11:15:22.611Z,34.80
2018-06-27T11:16:22.615Z,34.77
2018-06-27T11:17:43.451Z,34.96
2018-06-27T11:18:45.000Z,35.05
2018-06-27T11:19:43.690Z,35.14
2018-06-27T11:20:45.236Z,34.54
2018-06-27T11:21:44.322Z,34.23
2018-06-27T11:22:43.818Z,34.10
2018-06-27T11:23:44.489Z,33.94
2018-06-27T11:25:07.582Z,33.46
2018-06-27T11:26:31.864Z,33.71
2018-06-27T11:27:56.409Z,34.06
2018-06-27T11:28:57.076Z,34.32
2018-06-27T11:29:57.003Z,34.43
2018-06-27T11:30:57.058Z,34.62
2018-06-27T11:31:56.832Z,34.50
2018-06-27T11:32:57.200Z,34.77
2018-06-27T11:33:57.037Z,34.77
2018-06-27T11:34:57.685Z,34.78
2018-06-27T11:35:56.326Z,34.90
2018-06-27T11:36:56.890Z,35.07
2018-06-27T11:37:56.641Z,35.27
2018-06-27T11:38:57.387Z,35.33
2018-06-27T11:39:57.068Z,34.47
2018-06-27T11:40:56.902Z,34.21
2018-06-27T11:42:18.129Z,34.47
2018-06-27T11:43:18.840Z,34.67
2018-06-27T11:44:18.581Z,34.52
2018-06-27T11:45:41.594Z,34.86
2018-06-27T11:47:05.953Z,35.36
2018-06-27T11:48:07.263Z,35.33
2018-06-27T11:49:06.755Z,35.30
2018-06-27T11:50:06.694Z,35.24
2018-06-27T11:51:06.342Z,35.00
2018-06-27T11:52:06.469Z,34.38
2018-06-27T11:53:06.294Z,33.59
2018-06-27T11:54:06.768Z,32.90
2018-06-27T11:55:06.551Z,32.82
2018-06-27T11:56:06.101Z,33.22
2018-06-27T11:57:06.856Z,33.52
2018-06-27T11:58:06.464Z,33.84
2018-06-27T11:59:06.010Z,34.08
2018-06-27T12:00:06.797Z,34.16
2018-06-27T12:01:06.623Z,34.57
2018-06-27T12:02:30.567Z,35.22
2018-06-27T12:03:31.217Z,35.08
2018-06-27T12:04:31.512Z,35.18
2018-06-27T12:05:31.394Z,35.39
2018-06-27T12:06:31.187Z,35.53
2018-06-27T12:07:30.826Z,35.80
2018-06-27T12:08:31.582Z,36.02
2018-06-27T12:09:31.506Z,36.16
2018-06-27T12:10:31.205Z,35.95
2018-06-27T12:11:31.150Z,35.45
2018-06-27T12:12:30.722Z,34.73
2018-06-27T12:13:31.176Z,34.33
2018-06-27T12:14:55.113Z,34.51
2018-06-27T12:16:18.750Z,33.40
2018-06-27T12:17:19.596Z,33.19
2018-06-27T12:18:19.324Z,32.97
2018-06-27T12:19:18.979Z,32.70
2018-06-27T12:20:42.727Z,32.92
2018-06-27T12:21:43.659Z,32.49
2018-06-27T12:22:43.461Z,32.93
2018-06-27T12:24:06.739Z,33.49
2018-06-27T12:25:07.710Z,33.87
2018-06-27T12:26:06.472Z,33.52
2018-06-27T12:27:08.130Z,32.96
2018-06-27T12:28:07.129Z,32.59
2018-06-27T12:29:06.737Z,32.19
2018-06-27T12:30:07.553Z,31.80
2018-06-27T12:31:07.067Z,31.47
2018-06-27T12:32:06.909Z,31.29
2018-06-27T12:33:06.525Z,31.10
2018-06-27T12:34:07.287Z,30.70
2018-06-27T12:35:07.196Z,30.68
2018-06-27T12:36:29.767Z,31.22
2018-06-27T12:37:30.195Z,30.85
2018-06-27T12:39:15.790Z,30.19
2018-06-27T12:40:16.264Z,29.81
2018-06-27T12:41:15.808Z,29.84
2018-06-27T12:42:16.285Z,29.75
2018-06-27T12:43:16.702Z,29.97
2018-06-27T12:44:17.444Z,29.94
2018-06-27T12:45:16.028Z,30.25
2018-06-27T12:46:16.701Z,30.05
2018-06-27T12:47:16.481Z,29.49
2018-06-27T12:48:38.786Z,29.05
2018-06-27T12:49:39.282Z,29.19
2018-06-27T12:50:39.731Z,29.71
2018-06-27T12:51:39.697Z,30.00
2018-06-27T12:52:39.806Z,30.63
2018-06-27T12:53:39.301Z,31.31
2018-06-27T12:54:38.991Z,31.61
2018-06-27T12:55:39.970Z,31.97
2018-06-27T12:56:39.777Z,31.55
2018-06-27T12:57:39.631Z,31.39
2018-06-27T12:58:39.277Z,31.39
2018-06-27T13:00:46.335Z,31.81
2018-06-27T13:01:46.006Z,31.34
2018-06-27T13:02:46.541Z,31.39
2018-06-27T13:03:46.340Z,31.51
2018-06-27T13:04:47.013Z,31.54
2018-06-27T13:06:31.382Z,32.21
2018-06-27T13:07:32.224Z,32.37
2018-06-27T13:08:32.138Z,32.51
2018-06-27T13:09:31.823Z,32.38
2018-06-27T13:10:32.393Z,32.26
2018-06-27T13:11:31.968Z,32.21
2018-06-27T13:12:31.597Z,32.74
2018-06-27T13:13:53.662Z,33.40
2018-06-27T13:14:54.793Z,33.55
2018-06-27T13:16:40.430Z,32.90
2018-06-27T13:17:40.296Z,31.94
2018-06-27T13:19:06.140Z,31.62
2018-06-27T13:20:05.645Z,31.80
2018-06-27T13:21:05.117Z,31.85
2018-06-27T13:22:04.722Z,31.74
2018-06-27T13:23:04.412Z,31.78
2018-06-27T13:24:05.123Z,32.27
2018-06-27T13:25:04.795Z,32.77
2018-06-27T13:26:26.491Z,33.00
2018-06-27T13:27:49.629Z,32.74
2018-06-27T13:28:49.595Z,32.33
2018-06-27T13:30:55.249Z,31.27
2018-06-27T13:31:56.198Z,31.65
2018-06-27T13:32:55.722Z,32.12
2018-06-27T13:34:43.175Z,32.80
2018-06-27T13:35:43.371Z,32.70
2018-06-27T13:36:43.261Z,32.53
2018-06-27T13:37:42.839Z,32.51
2018-06-27T13:38:43.729Z,32.63
2018-06-27T13:39:43.537Z,32.68
2018-06-27T13:40:43.532Z,32.38
2018-06-27T13:41:43.428Z,31.97
2018-06-27T13:42:43.028Z,32.14
2018-06-27T13:43:43.688Z,32.21